Impacts TAF Board
For situational awareness. Not to be used for flight planning purposes.
IDs:

KAUS - Austin/Bergstrom Int, TX, US

Issued at 0118 UTC 19 Aug 2019
Updated at 0526 UTC 19 Aug 2019
Potential Impact None Slight Moderate High
Time<<19/18Z 19/19Z 19/20Z 19/21Z 19/22Z 19/23Z 20/00Z 20/01Z 20/02Z 20/03Z 20/04Z 20/05Z 20/06Z>>
Type PRVL PRVL PRVL PRVL PRVL PRVL PRVL PRVL PRVL PRVL PRVL PRVL
VIS >6 >6 >6 >6 >6 >6 >6 >6 >6 >6 >6 >6
CIG -- -- -- -- -- -- -- -- -- -- -- --
Cover SCT SCT SCT SCT SCT SCT FEW FEW FEW FEW FEW FEW
FltCat VFR VFR VFR VFR VFR VFR VFR VFR VFR VFR VFR VFR
WX -- -- -- -- -- -- -- -- -- -- -- --
WDir 190 190 190 190 190 190 150 150 150 150 150 150
WSpd 11 11 11 11 11 11 9 9 9 9 9 9
WGst -- -- -- -- -- -- -- -- -- -- -- --
Raw TAF
KAUS 190118Z 1901/2006 16011KT P6SM FEW080 FEW250
  FM190700 18008KT P6SM FEW008 BKN015
  FM191500 19011KT P6SM SCT025
  FM200000 15009KT P6SM FEW070


METAR Board
Radar Display
Forecast Discussion
For situational awareness. Not to be used for flight planning purposes.